sensor_id;sensor_type;location;lat;lon;timestamp;P1;durP1;ratioP1;P2;durP2;ratioP2
13708;SDS011;54933;51.908;7.730;2023-04-01T00:01:42;0.27;;;0.27;;
13708;SDS011;54933;51.908;7.730;2023-04-01T00:04:07;0.10;;;0.10;;
13708;SDS011;54933;51.908;7.730;2023-04-01T00:06:32;0.20;;;0.10;;
13708;SDS011;54933;51.908;7.730;2023-04-01T00:08:58;0.40;;;0.33;;
13708;SDS011;54933;51.908;7.730;2023-04-01T00:11:23;0.40;;;0.10;;
13708;SDS011;54933;51.908;7.730;2023-04-01T00:13:48;0.57;;;0.30;;
13708;SDS011;54933;51.908;7.730;2023-04-01T00:16:14;0.20;;;0.13;;
13708;SDS011;54933;51.908;7.730;2023-04-01T00:18:40;1.13;;;0.20;;
13708;SDS011;54933;51.908;7.730;2023-04-01T00:21:06;0.20;;;0.20;;
13708;SDS011;54933;51.908;7.730;2023-04-01T00:23:31;0.20;;;0.20;;
13708;SDS011;54933;51.908;7.730;2023-04-01T00:25:59;0.10;;;0.10;;
13708;SDS011;54933;51.908;7.730;2023-04-01T00:28:25;0.10;;;0.10;;
13708;SDS011;54933;51.908;7.730;2023-04-01T00:30:51;1.13;;;0.30;;
13708;SDS011;54933;51.908;7.730;2023-04-01T00:33:17;0.23;;;0.23;;
13708;SDS011;54933;51.908;7.730;2023-04-01T00:35:42;0.20;;;0.20;;
13708;SDS011;54933;51.908;7.730;2023-04-01T00:38:07;0.20;;;0.20;;
13708;SDS011;54933;51.908;7.730;2023-04-01T00:40:34;0.23;;;0.23;;
13708;SDS011;54933;51.908;7.730;2023-04-01T00:43:02;0.40;;;0.20;;
13708;SDS011;54933;51.908;7.730;2023-04-01T00:45:32;1.47;;;0.13;;
13708;SDS011;54933;51.908;7.730;2023-04-01T00:48:13;0.30;;;0.30;;
13708;SDS011;54933;51.908;7.730;2023-04-01T00:50:42;0.10;;;0.10;;
13708;SDS011;54933;51.908;7.730;2023-04-01T00:53:13;1.67;;;0.30;;
13708;SDS011;54933;51.908;7.730;2023-04-01T00:55:40;0.20;;;0.20;;
13708;SDS011;54933;51.908;7.730;2023-04-01T00:58:13;0.40;;;0.30;;
13708;SDS011;54933;51.908;7.730;2023-04-01T01:00:41;0.53;;;0.30;;
13708;SDS011;54933;51.908;7.730;2023-04-01T01:03:07;0.27;;;0.23;;
13708;SDS011;54933;51.908;7.730;2023-04-01T01:05:45;0.10;;;0.10;;
13708;SDS011;54933;51.908;7.730;2023-04-01T01:11:19;0.40;;;0.10;;
13708;SDS011;54933;51.908;7.730;2023-04-01T01:16:27;0.20;;;0.20;;
13708;SDS011;54933;51.908;7.730;2023-04-01T01:18:58;0.73;;;0.30;;
13708;SDS011;54933;51.908;7.730;2023-04-01T01:24:17;0.20;;;0.20;;
13708;SDS011;54933;51.908;7.730;2023-04-01T01:26:58;0.20;;;0.20;;
13708;SDS011;54933;51.908;7.730;2023-04-01T01:37:42;0.33;;;0.30;;
13708;SDS011;54933;51.908;7.730;2023-04-01T01:40:10;0.40;;;0.37;;
13708;SDS011;54933;51.908;7.730;2023-04-01T01:42:37;0.10;;;0.10;;
13708;SDS011;54933;51.908;7.730;2023-04-01T01:45:05;0.47;;;0.20;;
13708;SDS011;54933;51.908;7.730;2023-04-01T01:47:33;0.53;;;0.20;;
13708;SDS011;54933;51.908;7.730;2023-04-01T01:50:00;0.17;;;0.17;;
13708;SDS011;54933;51.908;7.730;2023-04-01T01:52:28;0.40;;;0.20;;
13708;SDS011;54933;51.908;7.730;2023-04-01T01:54:54;0.20;;;0.20;;
13708;SDS011;54933;51.908;7.730;2023-04-01T01:57:25;0.47;;;0.23;;
13708;SDS011;54933;51.908;7.730;2023-04-01T01:59:55;1.70;;;0.13;;
13708;SDS011;54933;51.908;7.730;2023-04-01T02:02:24;0.20;;;0.20;;
13708;SDS011;54933;51.908;7.730;2023-04-01T02:04:51;0.30;;;0.20;;
13708;SDS011;54933;51.908;7.730;2023-04-01T02:07:28;0.20;;;0.20;;
13708;SDS011;54933;51.908;7.730;2023-04-01T02:09:58;0.83;;;0.10;;
13708;SDS011;54933;51.908;7.730;2023-04-01T02:12:24;0.50;;;0.13;;
13708;SDS011;54933;51.908;7.730;2023-04-01T02:14:52;0.87;;;0.30;;
13708;SDS011;54933;51.908;7.730;2023-04-01T02:17:21;0.20;;;0.20;;
13708;SDS011;54933;51.908;7.730;2023-04-01T02:20:05;0.13;;;0.13;;
13708;SDS011;54933;51.908;7.730;2023-04-01T02:22:38;0.20;;;0.20;;
13708;SDS011;54933;51.908;7.730;2023-04-01T02:25:11;0.27;;;0.27;;
13708;SDS011;54933;51.908;7.730;2023-04-01T02:27:40;0.57;;;0.30;;
13708;SDS011;54933;51.908;7.730;2023-04-01T02:30:08;0.13;;;0.13;;
13708;SDS011;54933;51.908;7.730;2023-04-01T02:32:34;0.20;;;0.20;;
13708;SDS011;54933;51.908;7.730;2023-04-01T02:35:03;0.10;;;0.10;;
13708;SDS011;54933;51.908;7.730;2023-04-01T02:37:35;0.30;;;0.30;;
13708;SDS011;54933;51.908;7.730;2023-04-01T02:40:01;0.17;;;0.10;;
13708;SDS011;54933;51.908;7.730;2023-04-01T02:42:28;0.53;;;0.20;;
13708;SDS011;54933;51.908;7.730;2023-04-01T02:44:53;0.60;;;0.40;;
13708;SDS011;54933;51.908;7.730;2023-04-01T02:47:18;0.47;;;0.27;;
13708;SDS011;54933;51.908;7.730;2023-04-01T02:49:44;0.37;;;0.30;;
13708;SDS011;54933;51.908;7.730;2023-04-01T02:52:09;0.10;;;0.10;;
13708;SDS011;54933;51.908;7.730;2023-04-01T02:54:34;0.10;;;0.10;;
13708;SDS011;54933;51.908;7.730;2023-04-01T02:56:59;0.10;;;0.10;;
13708;SDS011;54933;51.908;7.730;2023-04-01T02:59:25;0.17;;;0.17;;
13708;SDS011;54933;51.908;7.730;2023-04-01T03:01:50;0.10;;;0.10;;
13708;SDS011;54933;51.908;7.730;2023-04-01T03:04:15;0.20;;;0.20;;
13708;SDS011;54933;51.908;7.730;2023-04-01T03:06:41;0.40;;;0.27;;
13708;SDS011;54933;51.908;7.730;2023-04-01T03:09:06;0.30;;;0.30;;
13708;SDS011;54933;51.908;7.730;2023-04-01T03:11:31;0.20;;;0.20;;
13708;SDS011;54933;51.908;7.730;2023-04-01T03:13:57;0.17;;;0.17;;
13708;SDS011;54933;51.908;7.730;2023-04-01T03:16:23;0.17;;;0.17;;
13708;SDS011;54933;51.908;7.730;2023-04-01T03:18:48;0.70;;;0.27;;
13708;SDS011;54933;51.908;7.730;2023-04-01T03:21:19;0.13;;;0.13;;
13708;SDS011;54933;51.908;7.730;2023-04-01T03:23:46;0.20;;;0.20;;
13708;SDS011;54933;51.908;7.730;2023-04-01T03:26:12;0.53;;;0.17;;
13708;SDS011;54933;51.908;7.730;2023-04-01T03:28:38;0.10;;;0.10;;
13708;SDS011;54933;51.908;7.730;2023-04-01T03:31:03;0.23;;;0.20;;
13708;SDS011;54933;51.908;7.730;2023-04-01T03:33:29;0.20;;;0.20;;
13708;SDS011;54933;51.908;7.730;2023-04-01T03:35:55;0.10;;;0.10;;
13708;SDS011;54933;51.908;7.730;2023-04-01T03:38:20;0.20;;;0.20;;
13708;SDS011;54933;51.908;7.730;2023-04-01T03:40:46;0.10;;;0.03;;
13708;SDS011;54933;51.908;7.730;2023-04-01T03:43:11;0.30;;;0.30;;
13708;SDS011;54933;51.908;7.730;2023-04-01T03:45:43;0.33;;;0.20;;
13708;SDS011;54933;51.908;7.730;2023-04-01T03:48:16;0.17;;;0.17;;
13708;SDS011;54933;51.908;7.730;2023-04-01T03:50:42;0.20;;;0.20;;
13708;SDS011;54933;51.908;7.730;2023-04-01T03:53:07;0.70;;;0.20;;
13708;SDS011;54933;51.908;7.730;2023-04-01T03:55:35;0.57;;;0.20;;
13708;SDS011;54933;51.908;7.730;2023-04-01T03:58:01;0.10;;;0.10;;
13708;SDS011;54933;51.908;7.730;2023-04-01T04:00:27;0.13;;;0.13;;
13708;SDS011;54933;51.908;7.730;2023-04-01T04:02:56;0.30;;;0.30;;
13708;SDS011;54933;51.908;7.730;2023-04-01T04:05:23;0.10;;;0.10;;
13708;SDS011;54933;51.908;7.730;2023-04-01T04:07:49;0.37;;;0.30;;
13708;SDS011;54933;51.908;7.730;2023-04-01T04:10:15;0.63;;;0.23;;
13708;SDS011;54933;51.908;7.730;2023-04-01T04:12:40;0.20;;;0.20;;
13708;SDS011;54933;51.908;7.730;2023-04-01T04:15:06;0.30;;;0.20;;
13708;SDS011;54933;51.908;7.730;2023-04-01T04:17:31;0.20;;;0.20;;
13708;SDS011;54933;51.908;7.730;2023-04-01T04:19:57;0.27;;;0.23;;
13708;SDS011;54933;51.908;7.730;2023-04-01T04:22:22;0.17;;;0.17;;
13708;SDS011;54933;51.908;7.730;2023-04-01T04:24:47;0.63;;;0.20;;
13708;SDS011;54933;51.908;7.730;2023-04-01T04:27:13;0.20;;;0.20;;
13708;SDS011;54933;51.908;7.730;2023-04-01T04:29:38;0.10;;;0.10;;
13708;SDS011;54933;51.908;7.730;2023-04-01T04:32:03;0.17;;;0.17;;
13708;SDS011;54933;51.908;7.730;2023-04-01T04:34:29;0.40;;;0.30;;
13708;SDS011;54933;51.908;7.730;2023-04-01T04:36:54;0.13;;;0.10;;
13708;SDS011;54933;51.908;7.730;2023-04-01T04:39:19;0.40;;;0.20;;
13708;SDS011;54933;51.908;7.730;2023-04-01T04:41:45;0.20;;;0.20;;
13708;SDS011;54933;51.908;7.730;2023-04-01T04:44:10;0.20;;;0.20;;
13708;SDS011;54933;51.908;7.730;2023-04-01T04:46:35;0.13;;;0.13;;
13708;SDS011;54933;51.908;7.730;2023-04-01T04:49:02;0.50;;;0.27;;
13708;SDS011;54933;51.908;7.730;2023-04-01T04:51:27;0.30;;;0.20;;
13708;SDS011;54933;51.908;7.730;2023-04-01T04:53:52;2.30;;;0.10;;
13708;SDS011;54933;51.908;7.730;2023-04-01T04:56:18;1.13;;;0.20;;
13708;SDS011;54933;51.908;7.730;2023-04-01T04:58:45;0.20;;;0.20;;
13708;SDS011;54933;51.908;7.730;2023-04-01T05:01:12;0.20;;;0.13;;
13708;SDS011;54933;51.908;7.730;2023-04-01T05:03:39;0.10;;;0.10;;
13708;SDS011;54933;51.908;7.730;2023-04-01T05:06:05;0.10;;;0.10;;
13708;SDS011;54933;51.908;7.730;2023-04-01T05:08:32;0.10;;;0.10;;
13708;SDS011;54933;51.908;7.730;2023-04-01T05:10:58;1.40;;;0.10;;
13708;SDS011;54933;51.908;7.730;2023-04-01T05:13:24;0.20;;;0.20;;
13708;SDS011;54933;51.908;7.730;2023-04-01T05:15:49;0.43;;;0.43;;
13708;SDS011;54933;51.908;7.730;2023-04-01T05:18:15;0.20;;;0.20;;
13708;SDS011;54933;51.908;7.730;2023-04-01T05:20:45;0.20;;;0.20;;
13708;SDS011;54933;51.908;7.730;2023-04-01T05:23:14;0.30;;;0.30;;
13708;SDS011;54933;51.908;7.730;2023-04-01T05:25:41;0.10;;;0.10;;
13708;SDS011;54933;51.908;7.730;2023-04-01T05:28:06;0.10;;;0.10;;
13708;SDS011;54933;51.908;7.730;2023-04-01T05:30:31;0.20;;;0.20;;
13708;SDS011;54933;51.908;7.730;2023-04-01T05:32:57;0.10;;;0.10;;
13708;SDS011;54933;51.908;7.730;2023-04-01T05:35:22;0.17;;;0.17;;
13708;SDS011;54933;51.908;7.730;2023-04-01T05:37:48;0.27;;;0.10;;
13708;SDS011;54933;51.908;7.730;2023-04-01T05:40:13;0.20;;;0.20;;
13708;SDS011;54933;51.908;7.730;2023-04-01T05:42:39;0.20;;;0.20;;
13708;SDS011;54933;51.908;7.730;2023-04-01T05:45:04;0.07;;;0.07;;
13708;SDS011;54933;51.908;7.730;2023-04-01T05:47:30;0.23;;;0.20;;
13708;SDS011;54933;51.908;7.730;2023-04-01T05:49:55;0.70;;;0.20;;
13708;SDS011;54933;51.908;7.730;2023-04-01T05:52:21;0.10;;;0.10;;
13708;SDS011;54933;51.908;7.730;2023-04-01T05:54:46;0.33;;;0.17;;
13708;SDS011;54933;51.908;7.730;2023-04-01T05:57:11;0.10;;;0.10;;
13708;SDS011;54933;51.908;7.730;2023-04-01T05:59:36;0.10;;;0.10;;
13708;SDS011;54933;51.908;7.730;2023-04-01T06:02:02;0.10;;;0.10;;
13708;SDS011;54933;51.908;7.730;2023-04-01T06:04:28;0.10;;;0.10;;
13708;SDS011;54933;51.908;7.730;2023-04-01T06:07:00;0.00;;;0.00;;
13708;SDS011;54933;51.908;7.730;2023-04-01T06:09:29;0.20;;;0.20;;
13708;SDS011;54933;51.908;7.730;2023-04-01T06:26:18;0.10;;;0.10;;
13708;SDS011;54933;51.908;7.730;2023-04-01T06:29:03;0.20;;;0.20;;
13708;SDS011;54933;51.908;7.730;2023-04-01T06:34:17;0.43;;;0.30;;
13708;SDS011;54933;51.908;7.730;2023-04-01T06:39:51;0.20;;;0.20;;
13708;SDS011;54933;51.908;7.730;2023-04-01T06:42:40;0.13;;;0.10;;
13708;SDS011;54933;51.908;7.730;2023-04-01T06:45:39;0.53;;;0.50;;
13708;SDS011;54933;51.908;7.730;2023-04-01T06:51:32;0.13;;;0.13;;
13708;SDS011;54933;51.908;7.730;2023-04-01T06:54:18;0.00;;;0.00;;
13708;SDS011;54933;51.908;7.730;2023-04-01T06:56:51;0.00;;;0.00;;
13708;SDS011;54933;51.908;7.730;2023-04-01T06:59:25;0.10;;;0.10;;
13708;SDS011;54933;51.908;7.730;2023-04-01T07:01:53;0.10;;;0.10;;
13708;SDS011;54933;51.908;7.730;2023-04-01T07:07:08;0.20;;;0.10;;
13708;SDS011;54933;51.908;7.730;2023-04-01T07:09:43;0.17;;;0.10;;
13708;SDS011;54933;51.908;7.730;2023-04-01T07:12:21;0.10;;;0.10;;
13708;SDS011;54933;51.908;7.730;2023-04-01T07:14:55;0.30;;;0.10;;
13708;SDS011;54933;51.908;7.730;2023-04-01T07:17:25;0.20;;;0.20;;
13708;SDS011;54933;51.908;7.730;2023-04-01T07:19:56;0.67;;;0.20;;
13708;SDS011;54933;51.908;7.730;2023-04-01T07:22:28;0.07;;;0.07;;
13708;SDS011;54933;51.908;7.730;2023-04-01T07:24:57;0.20;;;0.20;;
13708;SDS011;54933;51.908;7.730;2023-04-01T07:27:28;1.30;;;0.13;;
13708;SDS011;54933;51.908;7.730;2023-04-01T07:29:55;0.10;;;0.10;;
13708;SDS011;54933;51.908;7.730;2023-04-01T07:32:25;0.37;;;0.20;;
13708;SDS011;54933;51.908;7.730;2023-04-01T07:40:28;0.63;;;0.23;;
13708;SDS011;54933;51.908;7.730;2023-04-01T07:43:17;0.10;;;0.10;;
13708;SDS011;54933;51.908;7.730;2023-04-01T07:48:33;0.70;;;0.20;;
13708;SDS011;54933;51.908;7.730;2023-04-01T07:51:11;0.17;;;0.17;;
13708;SDS011;54933;51.908;7.730;2023-04-01T07:53:54;0.47;;;0.17;;
13708;SDS011;54933;51.908;7.730;2023-04-01T08:04:35;0.30;;;0.10;;
13708;SDS011;54933;51.908;7.730;2023-04-01T08:07:18;0.30;;;0.20;;
13708;SDS011;54933;51.908;7.730;2023-04-01T08:15:37;0.07;;;0.07;;
13708;SDS011;54933;51.908;7.730;2023-04-01T08:21:30;0.10;;;0.10;;
13708;SDS011;54933;51.908;7.730;2023-04-01T08:24:11;0.40;;;0.23;;
13708;SDS011;54933;51.908;7.730;2023-04-01T08:26:48;3.93;;;0.20;;
13708;SDS011;54933;51.908;7.730;2023-04-01T08:29:20;0.40;;;0.07;;
13708;SDS011;54933;51.908;7.730;2023-04-01T08:34:33;7.30;;;0.70;;
13708;SDS011;54933;51.908;7.730;2023-04-01T08:37:10;4.53;;;1.00;;
13708;SDS011;54933;51.908;7.730;2023-04-01T08:39:44;5.47;;;0.50;;
13708;SDS011;54933;51.908;7.730;2023-04-01T08:50:19;4.43;;;0.50;;
13708;SDS011;54933;51.908;7.730;2023-04-01T09:01:32;3.07;;;0.20;;
13708;SDS011;54933;51.908;7.730;2023-04-01T09:10:23;2.57;;;0.20;;
13708;SDS011;54933;51.908;7.730;2023-04-01T09:12:50;1.50;;;0.33;;
13708;SDS011;54933;51.908;7.730;2023-04-01T09:18:19;0.40;;;0.23;;
13708;SDS011;54933;51.908;7.730;2023-04-01T09:23:38;3.00;;;0.30;;
13708;SDS011;54933;51.908;7.730;2023-04-01T09:26:44;0.60;;;0.40;;
13708;SDS011;54933;51.908;7.730;2023-04-01T09:29:30;0.23;;;0.20;;
13708;SDS011;54933;51.908;7.730;2023-04-01T09:48:01;61.80;;;4.90;;
13708;SDS011;54933;51.908;7.730;2023-04-01T09:53:28;25.03;;;2.47;;
13708;SDS011;54933;51.908;7.730;2023-04-01T09:56:19;24.07;;;2.20;;
13708;SDS011;54933;51.908;7.730;2023-04-01T10:04:45;14.83;;;1.67;;
13708;SDS011;54933;51.908;7.730;2023-04-01T10:35:05;10.93;;;1.17;;
13708;SDS011;54933;51.908;7.730;2023-04-01T10:58:29;2.77;;;0.70;;
13708;SDS011;54933;51.908;7.730;2023-04-01T11:09:55;22.63;;;3.03;;
13708;SDS011;54933;51.908;7.730;2023-04-01T11:21:21;32.33;;;2.93;;
13708;SDS011;54933;51.908;7.730;2023-04-01T11:26:46;19.37;;;2.27;;
13708;SDS011;54933;51.908;7.730;2023-04-01T11:38:19;17.70;;;2.00;;
13708;SDS011;54933;51.908;7.730;2023-04-01T11:41:10;16.40;;;1.63;;
13708;SDS011;54933;51.908;7.730;2023-04-01T11:52:04;7.70;;;1.80;;
13708;SDS011;54933;51.908;7.730;2023-04-01T12:00:25;4.93;;;0.87;;
13708;SDS011;54933;51.908;7.730;2023-04-01T12:06:11;8.03;;;1.03;;
13708;SDS011;54933;51.908;7.730;2023-04-01T12:11:33;5.50;;;0.97;;
13708;SDS011;54933;51.908;7.730;2023-04-01T12:14:20;6.90;;;1.10;;
13708;SDS011;54933;51.908;7.730;2023-04-01T12:19:51;7.50;;;1.00;;
13708;SDS011;54933;51.908;7.730;2023-04-01T12:22:28;7.70;;;1.60;;
13708;SDS011;54933;51.908;7.730;2023-04-01T12:28:13;22.67;;;3.90;;
13708;SDS011;54933;51.908;7.730;2023-04-01T12:33:36;95.10;;;7.20;;
13708;SDS011;54933;51.908;7.730;2023-04-01T12:36:13;39.20;;;2.80;;
13708;SDS011;54933;51.908;7.730;2023-04-01T12:44:37;46.73;;;4.50;;
13708;SDS011;54933;51.908;7.730;2023-04-01T12:55:45;40.40;;;3.17;;
13708;SDS011;54933;51.908;7.730;2023-04-01T12:58:33;19.97;;;2.13;;
13708;SDS011;54933;51.908;7.730;2023-04-01T13:01:19;18.63;;;1.97;;
13708;SDS011;54933;51.908;7.730;2023-04-01T13:09:52;32.97;;;3.27;;
13708;SDS011;54933;51.908;7.730;2023-04-01T13:15:10;18.80;;;2.60;;
13708;SDS011;54933;51.908;7.730;2023-04-01T13:28:39;128.23;;;9.27;;
13708;SDS011;54933;51.908;7.730;2023-04-01T13:31:26;164.20;;;13.03;;
13708;SDS011;54933;51.908;7.730;2023-04-01T13:37:18;46.77;;;3.90;;
13708;SDS011;54933;51.908;7.730;2023-04-01T13:42:51;17.93;;;3.53;;
13708;SDS011;54933;51.908;7.730;2023-04-01T13:45:23;11.97;;;2.03;;
13708;SDS011;54933;51.908;7.730;2023-04-01T13:56:23;21.10;;;2.30;;
13708;SDS011;54933;51.908;7.730;2023-04-01T13:59:39;22.13;;;2.33;;
13708;SDS011;54933;51.908;7.730;2023-04-01T14:02:24;18.10;;;2.13;;
13708;SDS011;54933;51.908;7.730;2023-04-01T14:13:33;17.10;;;3.00;;
13708;SDS011;54933;51.908;7.730;2023-04-01T14:16:12;13.37;;;1.47;;
13708;SDS011;54933;51.908;7.730;2023-04-01T14:19:11;12.07;;;2.13;;
13708;SDS011;54933;51.908;7.730;2023-04-01T14:24:46;5.73;;;1.27;;
13708;SDS011;54933;51.908;7.730;2023-04-01T14:27:43;7.90;;;1.60;;
13708;SDS011;54933;51.908;7.730;2023-04-01T14:30:20;9.13;;;1.37;;
13708;SDS011;54933;51.908;7.730;2023-04-01T14:38:24;29.37;;;3.60;;
13708;SDS011;54933;51.908;7.730;2023-04-01T14:47:08;12.43;;;1.10;;
13708;SDS011;54933;51.908;7.730;2023-04-01T14:50:19;3.03;;;0.60;;
13708;SDS011;54933;51.908;7.730;2023-04-01T14:52:40;3.93;;;0.67;;
13708;SDS011;54933;51.908;7.730;2023-04-01T14:55:18;7.13;;;0.80;;
13708;SDS011;54933;51.908;7.730;2023-04-01T14:57:58;1.83;;;0.67;;
13708;SDS011;54933;51.908;7.730;2023-04-01T15:00:30;0.73;;;0.70;;
13708;SDS011;54933;51.908;7.730;2023-04-01T15:08:54;4.73;;;0.80;;
13708;SDS011;54933;51.908;7.730;2023-04-01T15:17:29;9.60;;;1.90;;
13708;SDS011;54933;51.908;7.730;2023-04-01T15:26:13;7.50;;;1.13;;
13708;SDS011;54933;51.908;7.730;2023-04-01T15:29:01;12.17;;;1.10;;
13708;SDS011;54933;51.908;7.730;2023-04-01T15:34:48;6.83;;;0.97;;
13708;SDS011;54933;51.908;7.730;2023-04-01T15:37:35;10.80;;;0.80;;
13708;SDS011;54933;51.908;7.730;2023-04-01T15:42:55;6.30;;;0.90;;
13708;SDS011;54933;51.908;7.730;2023-04-01T15:49:04;2.97;;;0.60;;
13708;SDS011;54933;51.908;7.730;2023-04-01T16:03:02;2.20;;;0.70;;
13708;SDS011;54933;51.908;7.730;2023-04-01T16:16:19;8.80;;;0.67;;
13708;SDS011;54933;51.908;7.730;2023-04-01T16:21:51;40.67;;;3.83;;
13708;SDS011;54933;51.908;7.730;2023-04-01T16:24:43;36.37;;;4.07;;
13708;SDS011;54933;51.908;7.730;2023-04-01T16:27:33;30.57;;;1.90;;
13708;SDS011;54933;51.908;7.730;2023-04-01T16:32:54;16.17;;;1.57;;
13708;SDS011;54933;51.908;7.730;2023-04-01T16:35:39;12.17;;;1.30;;
13708;SDS011;54933;51.908;7.730;2023-04-01T16:46:08;11.30;;;2.03;;
13708;SDS011;54933;51.908;7.730;2023-04-01T16:49:04;9.03;;;2.30;;
13708;SDS011;54933;51.908;7.730;2023-04-01T16:57:35;6.03;;;1.97;;
13708;SDS011;54933;51.908;7.730;2023-04-01T17:02:49;9.03;;;2.40;;
13708;SDS011;54933;51.908;7.730;2023-04-01T17:05:21;8.63;;;2.20;;
13708;SDS011;54933;51.908;7.730;2023-04-01T17:11:00;10.50;;;2.17;;
13708;SDS011;54933;51.908;7.730;2023-04-01T17:30:28;4.60;;;1.80;;
13708;SDS011;54933;51.908;7.730;2023-04-01T17:46:50;3.93;;;1.70;;
13708;SDS011;54933;51.908;7.730;2023-04-01T17:49:42;7.30;;;1.27;;
13708;SDS011;54933;51.908;7.730;2023-04-01T17:52:21;12.40;;;2.10;;
13708;SDS011;54933;51.908;7.730;2023-04-01T18:12:04;2.23;;;1.37;;
13708;SDS011;54933;51.908;7.730;2023-04-01T18:26:13;4.03;;;1.33;;
13708;SDS011;54933;51.908;7.730;2023-04-01T18:29:13;3.77;;;1.10;;
13708;SDS011;54933;51.908;7.730;2023-04-01T18:32:13;1.93;;;0.90;;
13708;SDS011;54933;51.908;7.730;2023-04-01T18:48:15;1.43;;;0.80;;
13708;SDS011;54933;51.908;7.730;2023-04-01T18:50:55;2.73;;;0.97;;
13708;SDS011;54933;51.908;7.730;2023-04-01T18:55:55;4.43;;;1.13;;
13708;SDS011;54933;51.908;7.730;2023-04-01T18:58:26;3.80;;;0.70;;
13708;SDS011;54933;51.908;7.730;2023-04-01T19:06:27;3.37;;;0.90;;
13708;SDS011;54933;51.908;7.730;2023-04-01T19:09:00;1.10;;;0.80;;
13708;SDS011;54933;51.908;7.730;2023-04-01T19:14:28;1.70;;;0.80;;
13708;SDS011;54933;51.908;7.730;2023-04-01T19:17:21;4.20;;;1.10;;
13708;SDS011;54933;51.908;7.730;2023-04-01T19:22:48;2.70;;;0.80;;
13708;SDS011;54933;51.908;7.730;2023-04-01T19:25:30;0.87;;;0.60;;
13708;SDS011;54933;51.908;7.730;2023-04-01T19:28:03;5.43;;;0.93;;
13708;SDS011;54933;51.908;7.730;2023-04-01T19:30:58;2.67;;;0.80;;
13708;SDS011;54933;51.908;7.730;2023-04-01T19:33:30;1.33;;;0.70;;
13708;SDS011;54933;51.908;7.730;2023-04-01T19:36:29;0.70;;;0.70;;
13708;SDS011;54933;51.908;7.730;2023-04-01T19:44:20;0.53;;;0.53;;
13708;SDS011;54933;51.908;7.730;2023-04-01T19:47:05;1.47;;;0.60;;
13708;SDS011;54933;51.908;7.730;2023-04-01T19:50:00;2.60;;;0.57;;
13708;SDS011;54933;51.908;7.730;2023-04-01T19:52:30;0.83;;;0.57;;
13708;SDS011;54933;51.908;7.730;2023-04-01T19:57:57;1.33;;;0.73;;
13708;SDS011;54933;51.908;7.730;2023-04-01T20:00:42;0.93;;;0.70;;
13708;SDS011;54933;51.908;7.730;2023-04-01T20:03:17;0.47;;;0.47;;
13708;SDS011;54933;51.908;7.730;2023-04-01T20:08:18;0.53;;;0.50;;
13708;SDS011;54933;51.908;7.730;2023-04-01T20:11:00;1.10;;;0.70;;
13708;SDS011;54933;51.908;7.730;2023-04-01T20:16:20;0.70;;;0.60;;
13708;SDS011;54933;51.908;7.730;2023-04-01T20:18:59;1.13;;;0.67;;
13708;SDS011;54933;51.908;7.730;2023-04-01T20:21:31;0.40;;;0.40;;
13708;SDS011;54933;51.908;7.730;2023-04-01T20:24:06;1.47;;;0.47;;
13708;SDS011;54933;51.908;7.730;2023-04-01T20:26:46;0.50;;;0.50;;
13708;SDS011;54933;51.908;7.730;2023-04-01T20:34:19;10.17;;;0.97;;
13708;SDS011;54933;51.908;7.730;2023-04-01T20:37:09;4.63;;;0.83;;
13708;SDS011;54933;51.908;7.730;2023-04-01T20:42:54;4.40;;;0.90;;
13708;SDS011;54933;51.908;7.730;2023-04-01T20:45:47;0.80;;;0.50;;
13708;SDS011;54933;51.908;7.730;2023-04-01T20:48:28;4.20;;;0.90;;
13708;SDS011;54933;51.908;7.730;2023-04-01T20:51:10;4.87;;;0.90;;
13708;SDS011;54933;51.908;7.730;2023-04-01T20:53:43;1.37;;;0.80;;
13708;SDS011;54933;51.908;7.730;2023-04-01T20:56:37;1.43;;;0.73;;
13708;SDS011;54933;51.908;7.730;2023-04-01T20:59:24;4.70;;;0.83;;
13708;SDS011;54933;51.908;7.730;2023-04-01T21:07:34;3.27;;;0.80;;
13708;SDS011;54933;51.908;7.730;2023-04-01T21:10:27;4.33;;;0.60;;
13708;SDS011;54933;51.908;7.730;2023-04-01T21:12:57;1.27;;;0.70;;
13708;SDS011;54933;51.908;7.730;2023-04-01T21:15:40;1.07;;;0.73;;
13708;SDS011;54933;51.908;7.730;2023-04-01T21:21:14;1.17;;;0.70;;
13708;SDS011;54933;51.908;7.730;2023-04-01T21:26:56;0.73;;;0.60;;
13708;SDS011;54933;51.908;7.730;2023-04-01T21:38:12;1.50;;;0.50;;
13708;SDS011;54933;51.908;7.730;2023-04-01T21:46:40;0.60;;;0.60;;
13708;SDS011;54933;51.908;7.730;2023-04-01T21:52:18;0.60;;;0.60;;
13708;SDS011;54933;51.908;7.730;2023-04-01T21:55:28;0.67;;;0.40;;
13708;SDS011;54933;51.908;7.730;2023-04-01T21:58:24;1.67;;;0.57;;
13708;SDS011;54933;51.908;7.730;2023-04-01T22:09:02;0.97;;;0.60;;
13708;SDS011;54933;51.908;7.730;2023-04-01T22:14:39;0.87;;;0.40;;
13708;SDS011;54933;51.908;7.730;2023-04-01T22:17:20;0.40;;;0.40;;
13708;SDS011;54933;51.908;7.730;2023-04-01T22:22:25;0.60;;;0.53;;
13708;SDS011;54933;51.908;7.730;2023-04-01T22:25:05;1.23;;;0.50;;
13708;SDS011;54933;51.908;7.730;2023-04-01T22:30:29;0.63;;;0.40;;
13708;SDS011;54933;51.908;7.730;2023-04-01T22:33:02;0.30;;;0.30;;
13708;SDS011;54933;51.908;7.730;2023-04-01T22:35:48;0.57;;;0.33;;
13708;SDS011;54933;51.908;7.730;2023-04-01T22:38:27;0.33;;;0.30;;
13708;SDS011;54933;51.908;7.730;2023-04-01T22:44:23;1.77;;;0.60;;
13708;SDS011;54933;51.908;7.730;2023-04-01T22:47:09;0.40;;;0.40;;
13708;SDS011;54933;51.908;7.730;2023-04-01T22:49:47;0.67;;;0.40;;
13708;SDS011;54933;51.908;7.730;2023-04-01T22:52:23;0.20;;;0.20;;
13708;SDS011;54933;51.908;7.730;2023-04-01T22:55:04;0.30;;;0.30;;
13708;SDS011;54933;51.908;7.730;2023-04-01T22:57:38;0.23;;;0.23;;
13708;SDS011;54933;51.908;7.730;2023-04-01T23:02:47;1.33;;;0.40;;
13708;SDS011;54933;51.908;7.730;2023-04-01T23:05:35;0.40;;;0.40;;
13708;SDS011;54933;51.908;7.730;2023-04-01T23:08:25;0.40;;;0.40;;
13708;SDS011;54933;51.908;7.730;2023-04-01T23:11:06;0.50;;;0.50;;
13708;SDS011;54933;51.908;7.730;2023-04-01T23:13:35;0.30;;;0.30;;
13708;SDS011;54933;51.908;7.730;2023-04-01T23:16:04;0.30;;;0.30;;
13708;SDS011;54933;51.908;7.730;2023-04-01T23:18:35;0.27;;;0.27;;
13708;SDS011;54933;51.908;7.730;2023-04-01T23:26:40;0.40;;;0.40;;
13708;SDS011;54933;51.908;7.730;2023-04-01T23:29:15;0.30;;;0.30;;
13708;SDS011;54933;51.908;7.730;2023-04-01T23:31:45;0.83;;;0.27;;
13708;SDS011;54933;51.908;7.730;2023-04-01T23:36:37;0.20;;;0.20;;
13708;SDS011;54933;51.908;7.730;2023-04-01T23:39:10;0.40;;;0.40;;
13708;SDS011;54933;51.908;7.730;2023-04-01T23:41:46;0.30;;;0.20;;
13708;SDS011;54933;51.908;7.730;2023-04-01T23:44:11;0.30;;;0.30;;
13708;SDS011;54933;51.908;7.730;2023-04-01T23:46:39;0.97;;;0.30;;
13708;SDS011;54933;51.908;7.730;2023-04-01T23:49:06;0.70;;;0.30;;
13708;SDS011;54933;51.908;7.730;2023-04-01T23:51:39;1.50;;;0.30;;
13708;SDS011;54933;51.908;7.730;2023-04-01T23:54:19;0.70;;;0.10;;
13708;SDS011;54933;51.908;7.730;2023-04-01T23:56:53;0.37;;;0.37;;
13708;SDS011;54933;51.908;7.730;2023-04-01T23:59:30;0.30;;;0.30;;
